sensor_id;sensor_type;location;lat;lon;timestamp;temperature;humidity
18041;DHT22;9145;48.588;9.250;2023-03-01T00:00:53;1.40;99.90
18041;DHT22;9145;48.588;9.250;2023-03-01T00:03:20;1.40;99.90
18041;DHT22;9145;48.588;9.250;2023-03-01T00:05:47;1.40;99.90
18041;DHT22;9145;48.588;9.250;2023-03-01T00:08:14;1.40;99.90
18041;DHT22;9145;48.588;9.250;2023-03-01T00:10:42;1.40;99.90
18041;DHT22;9145;48.588;9.250;2023-03-01T00:13:09;1.40;99.90
18041;DHT22;9145;48.588;9.250;2023-03-01T00:15:38;1.40;99.90
18041;DHT22;9145;48.588;9.250;2023-03-01T00:18:07;1.50;99.90
18041;DHT22;9145;48.588;9.250;2023-03-01T00:20:34;1.50;99.90
18041;DHT22;9145;48.588;9.250;2023-03-01T00:23:01;1.30;99.90
18041;DHT22;9145;48.588;9.250;2023-03-01T00:25:28;1.30;99.90
18041;DHT22;9145;48.588;9.250;2023-03-01T00:27:56;1.20;99.90
18041;DHT22;9145;48.588;9.250;2023-03-01T00:30:23;1.20;99.90
18041;DHT22;9145;48.588;9.250;2023-03-01T00:32:50;1.20;99.90
18041;DHT22;9145;48.588;9.250;2023-03-01T00:35:16;1.10;99.90
18041;DHT22;9145;48.588;9.250;2023-03-01T00:37:43;1.10;99.90
18041;DHT22;9145;48.588;9.250;2023-03-01T00:40:11;1.10;99.90
18041;DHT22;9145;48.588;9.250;2023-03-01T00:42:38;1.10;99.90
18041;DHT22;9145;48.588;9.250;2023-03-01T00:45:07;1.10;99.90
18041;DHT22;9145;48.588;9.250;2023-03-01T00:47:34;1.10;99.90
18041;DHT22;9145;48.588;9.250;2023-03-01T00:50:01;1.00;99.90
18041;DHT22;9145;48.588;9.250;2023-03-01T00:52:28;1.00;99.90
18041;DHT22;9145;48.588;9.250;2023-03-01T00:54:54;0.90;99.90
18041;DHT22;9145;48.588;9.250;2023-03-01T00:57:23;0.90;99.90
18041;DHT22;9145;48.588;9.250;2023-03-01T00:59:50;0.90;99.90
18041;DHT22;9145;48.588;9.250;2023-03-01T01:02:19;0.90;99.90
18041;DHT22;9145;48.588;9.250;2023-03-01T01:04:46;0.90;99.90
18041;DHT22;9145;48.588;9.250;2023-03-01T01:07:13;0.90;99.90
18041;DHT22;9145;48.588;9.250;2023-03-01T01:09:40;0.90;99.90
18041;DHT22;9145;48.588;9.250;2023-03-01T01:12:07;0.90;99.90
18041;DHT22;9145;48.588;9.250;2023-03-01T01:14:34;0.90;99.90
18041;DHT22;9145;48.588;9.250;2023-03-01T01:17:01;0.90;99.90
18041;DHT22;9145;48.588;9.250;2023-03-01T01:19:30;0.80;99.90
18041;DHT22;9145;48.588;9.250;2023-03-01T01:21:57;0.80;99.90
18041;DHT22;9145;48.588;9.250;2023-03-01T01:24:23;0.80;99.90
18041;DHT22;9145;48.588;9.250;2023-03-01T01:26:50;0.80;99.90
18041;DHT22;9145;48.588;9.250;2023-03-01T01:29:17;0.80;99.90
18041;DHT22;9145;48.588;9.250;2023-03-01T01:31:44;0.80;99.90
18041;DHT22;9145;48.588;9.250;2023-03-01T01:34:15;0.80;99.90
18041;DHT22;9145;48.588;9.250;2023-03-01T01:36:44;0.80;99.90
18041;DHT22;9145;48.588;9.250;2023-03-01T01:39:10;0.80;99.90
18041;DHT22;9145;48.588;9.250;2023-03-01T01:41:39;0.80;99.90
18041;DHT22;9145;48.588;9.250;2023-03-01T01:44:14;0.90;99.90
18041;DHT22;9145;48.588;9.250;2023-03-01T01:46:43;0.80;99.90
18041;DHT22;9145;48.588;9.250;2023-03-01T01:49:17;0.90;99.90
18041;DHT22;9145;48.588;9.250;2023-03-01T01:51:49;0.90;99.90
18041;DHT22;9145;48.588;9.250;2023-03-01T01:54:19;0.90;99.90
18041;DHT22;9145;48.588;9.250;2023-03-01T01:56:49;0.90;99.90
18041;DHT22;9145;48.588;9.250;2023-03-01T01:59:17;0.90;99.90
18041;DHT22;9145;48.588;9.250;2023-03-01T02:01:44;1.00;99.90
18041;DHT22;9145;48.588;9.250;2023-03-01T02:04:11;1.00;99.90
18041;DHT22;9145;48.588;9.250;2023-03-01T02:06:41;1.00;99.90
18041;DHT22;9145;48.588;9.250;2023-03-01T02:09:13;1.00;99.90
18041;DHT22;9145;48.588;9.250;2023-03-01T02:11:40;1.10;99.90
18041;DHT22;9145;48.588;9.250;2023-03-01T02:14:07;1.10;99.90
18041;DHT22;9145;48.588;9.250;2023-03-01T02:16:35;1.10;99.90
18041;DHT22;9145;48.588;9.250;2023-03-01T02:19:03;1.10;99.90
18041;DHT22;9145;48.588;9.250;2023-03-01T02:21:38;1.10;99.90
18041;DHT22;9145;48.588;9.250;2023-03-01T02:24:18;1.20;99.90
18041;DHT22;9145;48.588;9.250;2023-03-01T02:26:52;1.10;99.90
18041;DHT22;9145;48.588;9.250;2023-03-01T02:29:22;1.20;99.90
18041;DHT22;9145;48.588;9.250;2023-03-01T02:31:49;1.20;99.90
18041;DHT22;9145;48.588;9.250;2023-03-01T02:34:19;1.20;99.90
18041;DHT22;9145;48.588;9.250;2023-03-01T02:36:48;1.20;99.90
18041;DHT22;9145;48.588;9.250;2023-03-01T02:39:19;1.20;99.90
18041;DHT22;9145;48.588;9.250;2023-03-01T02:41:51;1.20;99.90
18041;DHT22;9145;48.588;9.250;2023-03-01T02:44:18;1.20;99.90
18041;DHT22;9145;48.588;9.250;2023-03-01T02:46:49;1.10;99.90
18041;DHT22;9145;48.588;9.250;2023-03-01T02:49:19;1.10;99.90
18041;DHT22;9145;48.588;9.250;2023-03-01T02:54:40;1.20;99.90
18041;DHT22;9145;48.588;9.250;2023-03-01T02:57:08;1.10;99.90
18041;DHT22;9145;48.588;9.250;2023-03-01T02:59:37;1.20;99.90
18041;DHT22;9145;48.588;9.250;2023-03-01T03:02:07;1.20;99.90
18041;DHT22;9145;48.588;9.250;2023-03-01T03:04:34;1.20;99.90
18041;DHT22;9145;48.588;9.250;2023-03-01T03:07:01;1.20;99.90
18041;DHT22;9145;48.588;9.250;2023-03-01T03:09:29;1.20;99.90
18041;DHT22;9145;48.588;9.250;2023-03-01T03:11:56;1.30;99.90
18041;DHT22;9145;48.588;9.250;2023-03-01T03:14:22;1.40;99.90
18041;DHT22;9145;48.588;9.250;2023-03-01T03:16:50;1.30;99.90
18041;DHT22;9145;48.588;9.250;2023-03-01T03:19:19;1.30;99.90
18041;DHT22;9145;48.588;9.250;2023-03-01T03:21:46;1.40;99.90
18041;DHT22;9145;48.588;9.250;2023-03-01T03:24:13;1.40;99.90
18041;DHT22;9145;48.588;9.250;2023-03-01T03:26:39;1.40;99.90
18041;DHT22;9145;48.588;9.250;2023-03-01T03:29:06;1.30;99.90
18041;DHT22;9145;48.588;9.250;2023-03-01T03:31:33;1.40;99.90
18041;DHT22;9145;48.588;9.250;2023-03-01T03:34:00;1.30;99.90
18041;DHT22;9145;48.588;9.250;2023-03-01T03:36:28;1.30;99.90
18041;DHT22;9145;48.588;9.250;2023-03-01T03:38:55;1.30;99.90
18041;DHT22;9145;48.588;9.250;2023-03-01T03:41:22;1.30;99.90
18041;DHT22;9145;48.588;9.250;2023-03-01T03:43:49;1.30;99.90
18041;DHT22;9145;48.588;9.250;2023-03-01T03:46:15;1.30;99.90
18041;DHT22;9145;48.588;9.250;2023-03-01T03:48:44;1.30;99.90
18041;DHT22;9145;48.588;9.250;2023-03-01T03:51:12;1.30;99.90
18041;DHT22;9145;48.588;9.250;2023-03-01T03:53:40;1.30;99.90
18041;DHT22;9145;48.588;9.250;2023-03-01T03:56:08;1.20;99.90
18041;DHT22;9145;48.588;9.250;2023-03-01T03:58:34;1.20;99.90
18041;DHT22;9145;48.588;9.250;2023-03-01T04:01:01;1.20;99.90
18041;DHT22;9145;48.588;9.250;2023-03-01T04:03:30;1.20;99.90
18041;DHT22;9145;48.588;9.250;2023-03-01T04:05:59;1.20;99.90
18041;DHT22;9145;48.588;9.250;2023-03-01T04:08:26;1.30;99.90
18041;DHT22;9145;48.588;9.250;2023-03-01T04:10:58;1.30;99.90
18041;DHT22;9145;48.588;9.250;2023-03-01T04:13:25;1.30;99.90
18041;DHT22;9145;48.588;9.250;2023-03-01T04:15:53;1.30;99.90
18041;DHT22;9145;48.588;9.250;2023-03-01T04:18:22;1.30;99.90
18041;DHT22;9145;48.588;9.250;2023-03-01T04:20:50;1.30;99.90
18041;DHT22;9145;48.588;9.250;2023-03-01T04:23:21;1.30;99.90
18041;DHT22;9145;48.588;9.250;2023-03-01T04:25:49;1.40;99.90
18041;DHT22;9145;48.588;9.250;2023-03-01T04:28:23;1.30;99.90
18041;DHT22;9145;48.588;9.250;2023-03-01T04:30:51;1.30;99.90
18041;DHT22;9145;48.588;9.250;2023-03-01T04:33:18;1.30;99.90
18041;DHT22;9145;48.588;9.250;2023-03-01T04:35:45;1.40;99.90
18041;DHT22;9145;48.588;9.250;2023-03-01T04:38:15;1.40;99.90
18041;DHT22;9145;48.588;9.250;2023-03-01T04:40:42;1.40;99.90
18041;DHT22;9145;48.588;9.250;2023-03-01T04:43:09;1.40;99.90
18041;DHT22;9145;48.588;9.250;2023-03-01T04:45:38;1.40;99.90
18041;DHT22;9145;48.588;9.250;2023-03-01T04:48:05;1.40;99.90
18041;DHT22;9145;48.588;9.250;2023-03-01T04:50:32;1.50;99.90
18041;DHT22;9145;48.588;9.250;2023-03-01T04:52:59;1.60;99.90
18041;DHT22;9145;48.588;9.250;2023-03-01T04:55:26;1.60;99.90
18041;DHT22;9145;48.588;9.250;2023-03-01T04:57:54;1.60;99.90
18041;DHT22;9145;48.588;9.250;2023-03-01T05:00:21;1.50;99.90
18041;DHT22;9145;48.588;9.250;2023-03-01T05:02:52;1.50;99.90
18041;DHT22;9145;48.588;9.250;2023-03-01T05:05:24;1.50;99.90
18041;DHT22;9145;48.588;9.250;2023-03-01T05:07:56;1.50;99.90
18041;DHT22;9145;48.588;9.250;2023-03-01T05:10:23;1.50;99.90
18041;DHT22;9145;48.588;9.250;2023-03-01T05:12:50;1.50;99.90
18041;DHT22;9145;48.588;9.250;2023-03-01T05:15:18;1.50;99.90
18041;DHT22;9145;48.588;9.250;2023-03-01T05:17:47;1.50;99.90
18041;DHT22;9145;48.588;9.250;2023-03-01T05:20:15;1.60;99.90
18041;DHT22;9145;48.588;9.250;2023-03-01T05:22:42;1.60;99.90
18041;DHT22;9145;48.588;9.250;2023-03-01T05:25:09;1.60;99.90
18041;DHT22;9145;48.588;9.250;2023-03-01T05:27:36;1.60;99.90
18041;DHT22;9145;48.588;9.250;2023-03-01T05:30:04;1.60;99.90
18041;DHT22;9145;48.588;9.250;2023-03-01T05:32:40;1.70;99.90
18041;DHT22;9145;48.588;9.250;2023-03-01T05:35:08;1.60;99.90
18041;DHT22;9145;48.588;9.250;2023-03-01T05:37:40;1.60;99.90
18041;DHT22;9145;48.588;9.250;2023-03-01T05:40:08;1.60;99.90
18041;DHT22;9145;48.588;9.250;2023-03-01T05:42:42;1.60;99.90
18041;DHT22;9145;48.588;9.250;2023-03-01T05:45:09;1.60;99.90
18041;DHT22;9145;48.588;9.250;2023-03-01T05:47:38;1.60;99.90
18041;DHT22;9145;48.588;9.250;2023-03-01T05:50:05;1.60;99.90
18041;DHT22;9145;48.588;9.250;2023-03-01T05:52:33;1.60;99.90
18041;DHT22;9145;48.588;9.250;2023-03-01T05:55:01;1.70;99.90
18041;DHT22;9145;48.588;9.250;2023-03-01T05:57:28;1.70;99.90
18041;DHT22;9145;48.588;9.250;2023-03-01T05:59:55;1.70;99.90
18041;DHT22;9145;48.588;9.250;2023-03-01T06:02:22;1.70;99.90
18041;DHT22;9145;48.588;9.250;2023-03-01T06:04:49;1.70;99.90
18041;DHT22;9145;48.588;9.250;2023-03-01T06:07:15;1.70;99.90
18041;DHT22;9145;48.588;9.250;2023-03-01T06:09:42;1.70;99.90
18041;DHT22;9145;48.588;9.250;2023-03-01T06:12:11;1.70;99.90
18041;DHT22;9145;48.588;9.250;2023-03-01T06:14:38;1.80;99.90
18041;DHT22;9145;48.588;9.250;2023-03-01T06:17:04;1.80;99.90
18041;DHT22;9145;48.588;9.250;2023-03-01T06:19:31;1.80;99.90
18041;DHT22;9145;48.588;9.250;2023-03-01T06:21:58;1.70;99.90
18041;DHT22;9145;48.588;9.250;2023-03-01T06:24:25;1.70;99.90
18041;DHT22;9145;48.588;9.250;2023-03-01T06:26:54;1.70;99.90
18041;DHT22;9145;48.588;9.250;2023-03-01T06:29:22;1.70;99.90
18041;DHT22;9145;48.588;9.250;2023-03-01T06:31:49;1.60;99.90
18041;DHT22;9145;48.588;9.250;2023-03-01T06:34:16;1.60;99.90
18041;DHT22;9145;48.588;9.250;2023-03-01T06:36:43;1.60;99.90
18041;DHT22;9145;48.588;9.250;2023-03-01T06:39:09;1.60;99.90
18041;DHT22;9145;48.588;9.250;2023-03-01T06:41:36;1.60;99.90
18041;DHT22;9145;48.588;9.250;2023-03-01T06:44:03;1.50;99.90
18041;DHT22;9145;48.588;9.250;2023-03-01T06:46:31;1.50;99.90
18041;DHT22;9145;48.588;9.250;2023-03-01T06:48:58;1.50;99.90
18041;DHT22;9145;48.588;9.250;2023-03-01T06:51:25;1.50;99.90
18041;DHT22;9145;48.588;9.250;2023-03-01T06:53:52;1.50;99.90
18041;DHT22;9145;48.588;9.250;2023-03-01T06:56:19;1.50;99.90
18041;DHT22;9145;48.588;9.250;2023-03-01T06:58:46;1.50;99.90
18041;DHT22;9145;48.588;9.250;2023-03-01T07:01:13;1.50;99.90
18041;DHT22;9145;48.588;9.250;2023-03-01T07:03:41;1.50;99.90
18041;DHT22;9145;48.588;9.250;2023-03-01T07:06:09;1.50;99.90
18041;DHT22;9145;48.588;9.250;2023-03-01T07:08:36;1.60;99.90
18041;DHT22;9145;48.588;9.250;2023-03-01T07:11:03;1.60;99.90
18041;DHT22;9145;48.588;9.250;2023-03-01T07:13:31;1.60;99.90
18041;DHT22;9145;48.588;9.250;2023-03-01T07:15:58;1.70;99.90
18041;DHT22;9145;48.588;9.250;2023-03-01T07:18:25;1.60;99.90
18041;DHT22;9145;48.588;9.250;2023-03-01T07:20:53;1.70;99.90
18041;DHT22;9145;48.588;9.250;2023-03-01T07:23:19;1.70;99.90
18041;DHT22;9145;48.588;9.250;2023-03-01T07:25:51;1.80;99.90
18041;DHT22;9145;48.588;9.250;2023-03-01T07:28:18;1.80;99.90
18041;DHT22;9145;48.588;9.250;2023-03-01T07:30:45;1.90;99.90
18041;DHT22;9145;48.588;9.250;2023-03-01T07:33:12;1.90;99.90
18041;DHT22;9145;48.588;9.250;2023-03-01T07:35:39;2.10;99.90
18041;DHT22;9145;48.588;9.250;2023-03-01T07:38:07;2.10;99.90
18041;DHT22;9145;48.588;9.250;2023-03-01T07:40:34;2.10;99.90
18041;DHT22;9145;48.588;9.250;2023-03-01T07:43:01;2.20;99.90
18041;DHT22;9145;48.588;9.250;2023-03-01T07:45:28;2.10;99.90
18041;DHT22;9145;48.588;9.250;2023-03-01T07:47:55;2.10;99.90
18041;DHT22;9145;48.588;9.250;2023-03-01T07:50:22;2.20;99.90
18041;DHT22;9145;48.588;9.250;2023-03-01T07:52:49;2.20;99.90
18041;DHT22;9145;48.588;9.250;2023-03-01T07:55:17;2.30;99.90
18041;DHT22;9145;48.588;9.250;2023-03-01T07:57:45;2.40;99.90
18041;DHT22;9145;48.588;9.250;2023-03-01T08:00:13;2.40;99.90
18041;DHT22;9145;48.588;9.250;2023-03-01T08:02:40;2.50;99.90
18041;DHT22;9145;48.588;9.250;2023-03-01T08:05:07;2.60;99.90
18041;DHT22;9145;48.588;9.250;2023-03-01T08:07:35;2.60;99.90
18041;DHT22;9145;48.588;9.250;2023-03-01T08:10:02;2.60;99.90
18041;DHT22;9145;48.588;9.250;2023-03-01T08:12:30;2.70;99.90
18041;DHT22;9145;48.588;9.250;2023-03-01T08:14:57;2.70;99.90
18041;DHT22;9145;48.588;9.250;2023-03-01T08:17:24;2.80;99.90
18041;DHT22;9145;48.588;9.250;2023-03-01T08:19:51;2.80;99.90
18041;DHT22;9145;48.588;9.250;2023-03-01T08:22:17;3.00;99.90
18041;DHT22;9145;48.588;9.250;2023-03-01T08:24:44;2.90;99.90
18041;DHT22;9145;48.588;9.250;2023-03-01T08:27:11;2.90;99.90
18041;DHT22;9145;48.588;9.250;2023-03-01T08:29:40;2.80;99.90
18041;DHT22;9145;48.588;9.250;2023-03-01T08:32:06;2.90;99.90
18041;DHT22;9145;48.588;9.250;2023-03-01T08:34:33;2.90;99.90
18041;DHT22;9145;48.588;9.250;2023-03-01T08:37:01;3.00;99.90
18041;DHT22;9145;48.588;9.250;2023-03-01T08:39:28;3.10;99.90
18041;DHT22;9145;48.588;9.250;2023-03-01T08:41:54;3.10;99.90
18041;DHT22;9145;48.588;9.250;2023-03-01T08:44:21;3.20;99.90
18041;DHT22;9145;48.588;9.250;2023-03-01T08:46:50;3.30;99.90
18041;DHT22;9145;48.588;9.250;2023-03-01T08:49:19;3.40;99.90
18041;DHT22;9145;48.588;9.250;2023-03-01T08:51:47;3.40;99.90
18041;DHT22;9145;48.588;9.250;2023-03-01T08:54:16;3.60;99.90
18041;DHT22;9145;48.588;9.250;2023-03-01T08:56:43;3.60;99.90
18041;DHT22;9145;48.588;9.250;2023-03-01T08:59:11;3.60;99.90
18041;DHT22;9145;48.588;9.250;2023-03-01T09:01:39;3.60;99.90
18041;DHT22;9145;48.588;9.250;2023-03-01T09:04:10;3.70;99.90
18041;DHT22;9145;48.588;9.250;2023-03-01T09:06:37;3.80;99.90
18041;DHT22;9145;48.588;9.250;2023-03-01T09:09:04;3.90;99.90
18041;DHT22;9145;48.588;9.250;2023-03-01T09:11:33;4.00;99.90
18041;DHT22;9145;48.588;9.250;2023-03-01T09:14:00;4.10;99.90
18041;DHT22;9145;48.588;9.250;2023-03-01T09:16:27;4.20;99.90
18041;DHT22;9145;48.588;9.250;2023-03-01T09:18:55;4.30;99.90
18041;DHT22;9145;48.588;9.250;2023-03-01T09:21:23;4.40;99.90
18041;DHT22;9145;48.588;9.250;2023-03-01T09:23:50;4.60;99.90
18041;DHT22;9145;48.588;9.250;2023-03-01T09:26:18;4.60;99.90
18041;DHT22;9145;48.588;9.250;2023-03-01T09:28:46;4.70;99.90
18041;DHT22;9145;48.588;9.250;2023-03-01T09:31:14;4.80;99.90
18041;DHT22;9145;48.588;9.250;2023-03-01T09:33:45;4.80;99.90
18041;DHT22;9145;48.588;9.250;2023-03-01T09:36:14;4.90;99.90
18041;DHT22;9145;48.588;9.250;2023-03-01T09:38:43;4.90;99.90
18041;DHT22;9145;48.588;9.250;2023-03-01T09:41:11;4.80;99.90
18041;DHT22;9145;48.588;9.250;2023-03-01T09:43:49;4.90;99.90
18041;DHT22;9145;48.588;9.250;2023-03-01T09:46:21;5.10;99.90
18041;DHT22;9145;48.588;9.250;2023-03-01T09:48:54;5.10;99.90
18041;DHT22;9145;48.588;9.250;2023-03-01T09:51:25;5.20;99.90
18041;DHT22;9145;48.588;9.250;2023-03-01T09:53:54;5.50;99.90
18041;DHT22;9145;48.588;9.250;2023-03-01T09:56:28;5.70;99.90
18041;DHT22;9145;48.588;9.250;2023-03-01T09:59:01;5.90;99.90
18041;DHT22;9145;48.588;9.250;2023-03-01T10:01:35;6.10;99.90
18041;DHT22;9145;48.588;9.250;2023-03-01T10:04:27;6.30;99.90
18041;DHT22;9145;48.588;9.250;2023-03-01T10:07:06;6.20;99.90
18041;DHT22;9145;48.588;9.250;2023-03-01T10:09:42;5.90;99.90
18041;DHT22;9145;48.588;9.250;2023-03-01T10:12:13;6.00;99.90
18041;DHT22;9145;48.588;9.250;2023-03-01T10:14:46;6.20;99.90
18041;DHT22;9145;48.588;9.250;2023-03-01T10:17:24;6.50;99.90
18041;DHT22;9145;48.588;9.250;2023-03-01T10:19:52;6.70;99.90
18041;DHT22;9145;48.588;9.250;2023-03-01T10:22:21;6.70;99.90
18041;DHT22;9145;48.588;9.250;2023-03-01T10:24:52;6.60;99.90
18041;DHT22;9145;48.588;9.250;2023-03-01T10:27:21;6.70;99.90
18041;DHT22;9145;48.588;9.250;2023-03-01T10:29:54;6.80;99.90
18041;DHT22;9145;48.588;9.250;2023-03-01T10:32:25;6.80;99.90
18041;DHT22;9145;48.588;9.250;2023-03-01T10:34:52;6.90;99.90
18041;DHT22;9145;48.588;9.250;2023-03-01T10:37:21;6.90;99.90
18041;DHT22;9145;48.588;9.250;2023-03-01T10:40:04;7.10;99.90
18041;DHT22;9145;48.588;9.250;2023-03-01T10:42:35;7.30;99.90
18041;DHT22;9145;48.588;9.250;2023-03-01T10:45:30;7.50;99.90
18041;DHT22;9145;48.588;9.250;2023-03-01T10:48:05;7.70;99.90
18041;DHT22;9145;48.588;9.250;2023-03-01T10:50:32;7.90;99.90
18041;DHT22;9145;48.588;9.250;2023-03-01T10:53:00;8.00;99.90
18041;DHT22;9145;48.588;9.250;2023-03-01T10:55:33;8.20;99.90
18041;DHT22;9145;48.588;9.250;2023-03-01T10:58:16;8.50;99.90
18041;DHT22;9145;48.588;9.250;2023-03-01T11:00:49;8.40;99.90
18041;DHT22;9145;48.588;9.250;2023-03-01T11:03:21;8.50;99.90
18041;DHT22;9145;48.588;9.250;2023-03-01T11:05:55;8.40;99.90
18041;DHT22;9145;48.588;9.250;2023-03-01T11:08:39;8.30;99.90
18041;DHT22;9145;48.588;9.250;2023-03-01T11:11:24;8.50;99.90
18041;DHT22;9145;48.588;9.250;2023-03-01T11:13:57;8.30;99.90
18041;DHT22;9145;48.588;9.250;2023-03-01T11:16:33;8.20;99.90
18041;DHT22;9145;48.588;9.250;2023-03-01T11:19:13;8.40;99.90
18041;DHT22;9145;48.588;9.250;2023-03-01T11:21:44;8.50;99.90
18041;DHT22;9145;48.588;9.250;2023-03-01T11:24:14;8.50;99.90
18041;DHT22;9145;48.588;9.250;2023-03-01T11:26:47;8.80;99.90
18041;DHT22;9145;48.588;9.250;2023-03-01T11:29:25;9.00;99.90
18041;DHT22;9145;48.588;9.250;2023-03-01T11:31:55;9.20;99.90
18041;DHT22;9145;48.588;9.250;2023-03-01T11:34:33;9.40;99.90
18041;DHT22;9145;48.588;9.250;2023-03-01T11:37:10;9.40;99.90
18041;DHT22;9145;48.588;9.250;2023-03-01T11:39:46;9.40;99.90
18041;DHT22;9145;48.588;9.250;2023-03-01T11:42:18;9.50;99.90
18041;DHT22;9145;48.588;9.250;2023-03-01T11:44:48;9.60;99.90
18041;DHT22;9145;48.588;9.250;2023-03-01T11:47:32;9.60;99.90
18041;DHT22;9145;48.588;9.250;2023-03-01T11:50:13;9.70;99.90
18041;DHT22;9145;48.588;9.250;2023-03-01T11:52:48;9.80;99.90
18041;DHT22;9145;48.588;9.250;2023-03-01T11:55:29;10.00;99.90
18041;DHT22;9145;48.588;9.250;2023-03-01T11:58:14;10.10;99.90
18041;DHT22;9145;48.588;9.250;2023-03-01T12:01:13;10.00;99.90
18041;DHT22;9145;48.588;9.250;2023-03-01T12:03:56;10.10;99.90
18041;DHT22;9145;48.588;9.250;2023-03-01T12:06:35;10.00;99.90
18041;DHT22;9145;48.588;9.250;2023-03-01T12:09:17;10.10;99.90
18041;DHT22;9145;48.588;9.250;2023-03-01T12:12:03;10.20;99.90
18041;DHT22;9145;48.588;9.250;2023-03-01T12:14:46;10.40;99.90
18041;DHT22;9145;48.588;9.250;2023-03-01T12:17:45;10.50;99.90
18041;DHT22;9145;48.588;9.250;2023-03-01T12:20:21;10.50;99.90
18041;DHT22;9145;48.588;9.250;2023-03-01T12:23:13;10.70;99.90
18041;DHT22;9145;48.588;9.250;2023-03-01T12:25:46;10.90;99.90
18041;DHT22;9145;48.588;9.250;2023-03-01T12:31:53;11.10;99.90
18041;DHT22;9145;48.588;9.250;2023-03-01T12:37:27;10.90;99.90
18041;DHT22;9145;48.588;9.250;2023-03-01T12:40:13;11.10;99.90
18041;DHT22;9145;48.588;9.250;2023-03-01T12:42:50;11.00;99.90
18041;DHT22;9145;48.588;9.250;2023-03-01T12:45:44;11.10;99.90
18041;DHT22;9145;48.588;9.250;2023-03-01T12:48:35;11.30;99.90
18041;DHT22;9145;48.588;9.250;2023-03-01T12:51:06;11.40;99.90
18041;DHT22;9145;48.588;9.250;2023-03-01T12:53:39;11.50;99.90
18041;DHT22;9145;48.588;9.250;2023-03-01T12:56:08;11.60;99.90
18041;DHT22;9145;48.588;9.250;2023-03-01T12:58:41;11.50;99.90
18041;DHT22;9145;48.588;9.250;2023-03-01T13:01:22;11.70;99.90
18041;DHT22;9145;48.588;9.250;2023-03-01T13:06:52;11.70;99.90
18041;DHT22;9145;48.588;9.250;2023-03-01T13:09:25;11.70;99.90
18041;DHT22;9145;48.588;9.250;2023-03-01T13:11:56;11.70;99.90
18041;DHT22;9145;48.588;9.250;2023-03-01T13:14:36;11.90;99.90
18041;DHT22;9145;48.588;9.250;2023-03-01T13:17:04;11.80;99.80
18041;DHT22;9145;48.588;9.250;2023-03-01T13:19:32;11.70;99.90
18041;DHT22;9145;48.588;9.250;2023-03-01T13:22:30;11.80;99.90
18041;DHT22;9145;48.588;9.250;2023-03-01T13:25:02;12.00;99.90
18041;DHT22;9145;48.588;9.250;2023-03-01T13:27:29;12.00;99.30
18041;DHT22;9145;48.588;9.250;2023-03-01T13:29:59;12.10;99.90
18041;DHT22;9145;48.588;9.250;2023-03-01T13:32:29;12.20;99.80
18041;DHT22;9145;48.588;9.250;2023-03-01T13:35:01;12.30;99.90
18041;DHT22;9145;48.588;9.250;2023-03-01T13:37:33;12.40;99.90
18041;DHT22;9145;48.588;9.250;2023-03-01T13:40:04;12.40;99.80
18041;DHT22;9145;48.588;9.250;2023-03-01T13:42:38;12.40;98.90
18041;DHT22;9145;48.588;9.250;2023-03-01T13:45:24;12.40;98.90
18041;DHT22;9145;48.588;9.250;2023-03-01T13:47:56;12.40;99.30
18041;DHT22;9145;48.588;9.250;2023-03-01T13:50:27;12.40;99.40
18041;DHT22;9145;48.588;9.250;2023-03-01T13:52:59;12.60;99.20
18041;DHT22;9145;48.588;9.250;2023-03-01T13:55:35;12.60;98.50
18041;DHT22;9145;48.588;9.250;2023-03-01T13:58:14;12.50;98.20
18041;DHT22;9145;48.588;9.250;2023-03-01T14:00:41;12.50;99.20
18041;DHT22;9145;48.588;9.250;2023-03-01T14:03:14;12.70;99.80
18041;DHT22;9145;48.588;9.250;2023-03-01T14:05:42;12.60;97.80
18041;DHT22;9145;48.588;9.250;2023-03-01T14:08:22;12.70;99.00
18041;DHT22;9145;48.588;9.250;2023-03-01T14:10:59;12.90;97.80
18041;DHT22;9145;48.588;9.250;2023-03-01T14:13:39;12.90;98.30
18041;DHT22;9145;48.588;9.250;2023-03-01T14:16:20;13.20;98.40
18041;DHT22;9145;48.588;9.250;2023-03-01T14:18:58;13.20;98.10
18041;DHT22;9145;48.588;9.250;2023-03-01T14:21:29;13.30;98.00
18041;DHT22;9145;48.588;9.250;2023-03-01T14:23:57;13.30;98.10
18041;DHT22;9145;48.588;9.250;2023-03-01T14:26:25;13.30;97.70
18041;DHT22;9145;48.588;9.250;2023-03-01T14:28:52;13.40;98.00
18041;DHT22;9145;48.588;9.250;2023-03-01T14:31:46;13.50;97.60
18041;DHT22;9145;48.588;9.250;2023-03-01T14:34:19;13.70;97.40
18041;DHT22;9145;48.588;9.250;2023-03-01T14:36:46;13.90;97.40
18041;DHT22;9145;48.588;9.250;2023-03-01T14:39:19;13.90;97.60
18041;DHT22;9145;48.588;9.250;2023-03-01T14:41:47;14.10;96.90
18041;DHT22;9145;48.588;9.250;2023-03-01T14:44:17;14.20;96.40
18041;DHT22;9145;48.588;9.250;2023-03-01T14:46:46;14.10;96.30
18041;DHT22;9145;48.588;9.250;2023-03-01T14:49:16;14.10;96.60
18041;DHT22;9145;48.588;9.250;2023-03-01T14:51:51;14.20;96.50
18041;DHT22;9145;48.588;9.250;2023-03-01T14:54:25;14.40;96.40
18041;DHT22;9145;48.588;9.250;2023-03-01T14:56:57;14.30;96.10
18041;DHT22;9145;48.588;9.250;2023-03-01T14:59:25;13.90;96.10
18041;DHT22;9145;48.588;9.250;2023-03-01T15:01:55;13.70;96.70
18041;DHT22;9145;48.588;9.250;2023-03-01T15:04:22;13.90;96.50
18041;DHT22;9145;48.588;9.250;2023-03-01T15:06:51;14.00;96.40
18041;DHT22;9145;48.588;9.250;2023-03-01T15:09:19;14.00;96.90
18041;DHT22;9145;48.588;9.250;2023-03-01T15:11:47;14.10;96.00
18041;DHT22;9145;48.588;9.250;2023-03-01T15:14:26;14.40;96.00
18041;DHT22;9145;48.588;9.250;2023-03-01T15:16:53;14.30;95.70
18041;DHT22;9145;48.588;9.250;2023-03-01T15:19:20;14.30;95.40
18041;DHT22;9145;48.588;9.250;2023-03-01T15:21:50;14.20;95.30
18041;DHT22;9145;48.588;9.250;2023-03-01T15:24:20;14.40;96.60
18041;DHT22;9145;48.588;9.250;2023-03-01T15:26:52;14.60;95.30
18041;DHT22;9145;48.588;9.250;2023-03-01T15:29:24;14.70;95.90
18041;DHT22;9145;48.588;9.250;2023-03-01T15:31:57;14.90;95.50
18041;DHT22;9145;48.588;9.250;2023-03-01T15:34:26;15.30;95.00
18041;DHT22;9145;48.588;9.250;2023-03-01T15:36:54;15.40;94.80
18041;DHT22;9145;48.588;9.250;2023-03-01T15:39:37;15.30;94.80
18041;DHT22;9145;48.588;9.250;2023-03-01T15:42:08;15.00;94.50
18041;DHT22;9145;48.588;9.250;2023-03-01T15:44:37;14.80;94.30
18041;DHT22;9145;48.588;9.250;2023-03-01T15:47:21;14.80;94.30
18041;DHT22;9145;48.588;9.250;2023-03-01T15:49:51;14.80;94.60
18041;DHT22;9145;48.588;9.250;2023-03-01T15:52:22;14.70;94.30
18041;DHT22;9145;48.588;9.250;2023-03-01T15:54:55;14.80;94.40
18041;DHT22;9145;48.588;9.250;2023-03-01T15:57:23;14.90;94.10
18041;DHT22;9145;48.588;9.250;2023-03-01T15:59:50;14.90;94.30
18041;DHT22;9145;48.588;9.250;2023-03-01T16:02:17;15.20;94.10
18041;DHT22;9145;48.588;9.250;2023-03-01T16:04:46;15.20;94.00
18041;DHT22;9145;48.588;9.250;2023-03-01T16:07:14;15.10;93.90
18041;DHT22;9145;48.588;9.250;2023-03-01T16:09:40;14.90;93.60
18041;DHT22;9145;48.588;9.250;2023-03-01T16:12:13;14.70;94.10
18041;DHT22;9145;48.588;9.250;2023-03-01T16:14:42;14.20;94.10
18041;DHT22;9145;48.588;9.250;2023-03-01T16:17:09;14.10;94.20
18041;DHT22;9145;48.588;9.250;2023-03-01T16:19:36;14.20;94.40
18041;DHT22;9145;48.588;9.250;2023-03-01T16:22:03;14.30;94.00
18041;DHT22;9145;48.588;9.250;2023-03-01T16:24:30;14.10;94.00
18041;DHT22;9145;48.588;9.250;2023-03-01T16:26:57;13.90;94.00
18041;DHT22;9145;48.588;9.250;2023-03-01T16:29:24;13.70;94.40